Map

Track Data

SID SEASON NUMBER BASIN SUBBASIN NAME ISO_TIME NATURE LAT LON WMO_WIND WMO_PRES WMO_AGENCY TRACK_TYPE DIST2LAND LANDFALL IFLAG USA_AGENCY USA_ATCF_ID USA_LAT USA_LON USA_RECORD USA_STATUS USA_WIND USA_PRES USA_SSHS USA_R34_NE USA_R34_SE USA_R34_SW USA_R34_NW USA_R50_NE USA_R50_SE USA_R50_SW USA_R50_NW USA_R64_NE USA_R64_SE USA_R64_SW USA_R64_NW USA_POCI USA_ROCI USA_RMW USA_EYE TOKYO_LAT TOKYO_LON TOKYO_GRADE TOKYO_WIND TOKYO_PRES TOKYO_R50_DIR TOKYO_R50_LONG TOKYO_R50_SHORT TOKYO_R30_DIR TOKYO_R30_LONG TOKYO_R30_SHORT TOKYO_LAND CMA_LAT CMA_LON CMA_CAT CMA_WIND CMA_PRES HKO_LAT HKO_LON HKO_CAT HKO_WIND HKO_PRES NEWDELHI_LAT NEWDELHI_LON NEWDELHI_GRADE NEWDELHI_WIND NEWDELHI_PRES NEWDELHI_CI NEWDELHI_DP NEWDELHI_POCI REUNION_LAT REUNION_LON REUNION_TYPE REUNION_WIND REUNION_PRES REUNION_TNUM REUNION_CI REUNION_RMW REUNION_R34_NE REUNION_R34_SE REUNION_R34_SW REUNION_R34_NW REUNION_R50_NE REUNION_R50_SE REUNION_R50_SW REUNION_R50_NW REUNION_R64_NE REUNION_R64_SE REUNION_R64_SW REUNION_R64_NW BOM_LAT BOM_LON BOM_TYPE BOM_WIND BOM_PRES BOM_TNUM BOM_CI BOM_RMW BOM_R34_NE BOM_R34_SE BOM_R34_SW BOM_R34_NW BOM_R50_NE BOM_R50_SE BOM_R50_SW BOM_R50_NW BOM_R64_NE BOM_R64_SE BOM_R64_SW BOM_R64_NW BOM_ROCI BOM_POCI BOM_EYE BOM_POS_METHOD BOM_PRES_METHOD NADI_LAT NADI_LON NADI_CAT NADI_WIND NADI_PRES WELLINGTON_LAT WELLINGTON_LON WELLINGTON_WIND WELLINGTON_PRES DS824_LAT DS824_LON DS824_STAGE DS824_WIND DS824_PRES TD9636_LAT TD9636_LON TD9636_STAGE TD9636_WIND TD9636_PRES TD9635_LAT TD9635_LON TD9635_WIND TD9635_PRES TD9635_ROCI NEUMANN_LAT NEUMANN_LON NEUMANN_CLASS NEUMANN_WIND NEUMANN_PRES MLC_LAT MLC_LON MLC_CLASS MLC_WIND MLC_PRES USA_GUST BOM_GUST BOM_GUST_PER REUNION_GUST REUNION_GUST_PER USA_SEAHGT USA_SEARAD_NE USA_SEARAD_SE USA_SEARAD_SW USA_SEARAD_NW STORM_SPEED STORM_DIR
1995005N04189 1995 1 EP CP NOT_NAMED 1995-01-04 12:00:00 NR 3.90000 189.000 main 1955 1954 O_____________ jtwc_wp WP011995 3.90000 -171.000 20 -1 7 290
1995005N04189 1995 1 EP CP NOT_NAMED 1995-01-04 15:00:00 NR 4.02503 188.652 main 1964 1963 P_____________ WP011995 4.02503 -171.348 20 -1 8 293
1995005N04189 1995 1 EP CP NOT_NAMED 1995-01-04 18:00:00 NR 4.20000 188.300 main 1984 1984 O_____________ jtwc_wp WP011995 4.20000 -171.700 20 -1 8 301
1995005N04189 1995 1 EP CP NOT_NAMED 1995-01-04 21:00:00 NR 4.44999 187.943 main 2016 2005 P_____________ WP011995 4.44999 -172.057 22 -1 9 306
1995005N04189 1995 1 EP CP NOT_NAMED 1995-01-05 00:00:00 NR 4.70000 187.600 main 2039 2039 O_____________ jtwc_wp WP011995 4.70000 -172.400 25 -1 8 303
1995005N04189 1995 1 EP CP NOT_NAMED 1995-01-05 03:00:00 NR 4.87248 187.292 main 2061 2061 P_____________ WP011995 4.87248 -172.708 25 -1 7 297
1995005N04189 1995 1 EP CP NOT_NAMED 1995-01-05 06:00:00 NR 5.00000 187.000 main 2072 2072 O_____________ jtwc_wp WP011995 5.00000 -173.000 25 -1 6 292
1995005N04189 1995 1 EP CP NOT_NAMED 1995-01-05 09:00:00 NR 5.10746 186.715 main 2084 2084 P_____________ WP011995 5.10746 -173.285 25 -1 6 288
1995005N04189 1995 1 EP CP NOT_NAMED 1995-01-05 12:00:00 NR 5.20000 186.400 main 2096 2096 O_____________ jtwc_wp WP011995 5.20000 -173.600 25 -1 7 286
1995005N04189 1995 1 EP CP NOT_NAMED 1995-01-05 15:00:00 NR 5.29997 186.030 main 2110 2110 P_____________ WP011995 5.29997 -173.970 22 -1 8 284
1995005N04189 1995 1 EP CP NOT_NAMED 1995-01-05 18:00:00 NR 5.40000 185.600 main 2124 2124 O_____________ jtwc_wp WP011995 5.40000 -174.400 20 -1 9 282
1995005N04189 1995 1 EP CP NOT_NAMED 1995-01-05 21:00:00 NR 5.49999 185.115 main 2141 2141 P_____________ WP011995 5.49999 -174.885 20 -1 10 281
1995005N04189 1995 1 EP CP NOT_NAMED 1995-01-06 00:00:00 NR 5.60000 184.600 main 2159 2159 O_____________ jtwc_wp WP011995 5.60000 -175.400 20 -1 10 281
1995005N04189 1995 1 EP CP NOT_NAMED 1995-01-06 03:00:00 NR 5.69994 184.107 main 2178 2178 P_____________ WP011995 5.69994 -175.893 20 -1 10 281
1995005N04189 1995 1 EP CP NOT_NAMED 1995-01-06 06:00:00 NR 5.80000 183.600 main 2198 2198 O_____________ jtwc_wp WP011995 5.80000 -176.400 20 -1 11 281
1995005N04189 1995 1 EP CP NOT_NAMED 1995-01-06 09:00:00 NR 5.89999 183.050 main 2222 2222 P_____________ WP011995 5.89999 -176.950 22 -1 11 280
1995005N04189 1995 1 EP CP NOT_NAMED 1995-01-06 12:00:00 NR 6.00000 182.500 main 2245 2245 O_____________ jtwc_wp WP011995 6.00000 -177.500 25 -1 11 281
1995005N04189 1995 1 EP CP NOT_NAMED 1995-01-06 15:00:00 NR 6.09993 181.992 main 2269 2269 P_____________ WP011995 6.09993 -178.008 25 -1 10 281
1995005N04189 1995 1 EP CP NOT_NAMED 1995-01-06 18:00:00 NR 6.20000 181.500 main 2295 2295 O_____________ jtwc_wp WP011995 6.20000 -178.500 25 -1 10 281
1995005N04189 1995 1 EP CP NOT_NAMED 1995-01-06 21:00:00 NR 6.29245 181.000 main 2321 2321 P_____________ WP011995 6.29245 -179.000 25 -1 10 281
1995005N04189 1995 1 EP CP NOT_NAMED 1995-01-07 00:00:00 NR 6.40000 180.500 main 2349 2349 O_____________ jtwc_wp WP011995 6.40000 -179.500 25 -1 10 284
1995005N04189 1995 1 EP CP NOT_NAMED 1995-01-07 03:00:00 NR 6.54245 180.000 main 2377 2377 P_____________ WP011995 6.54245 180.000 25 -1 10 287
1995005N04189 1995 1 WP MM NOT_NAMED 1995-01-07 06:00:00 NR 6.70000 179.500 main 2417 2417 O_____________ jtwc_wp WP011995 6.70000 179.500 25 -1 10 287
1995005N04189 1995 1 WP MM NOT_NAMED 1995-01-07 09:00:00 NR 6.84247 178.992 main 2448 2448 P_____________ WP011995 6.84247 178.992 25 -1 10 287
1995005N04189 1995 1 WP MM NOT_NAMED 1995-01-07 12:00:00 NR 7.00000 178.500 main 2489 2489 O_____________ jtwc_wp WP011995 7.00000 178.500 25 -1 10 290
1995005N04189 1995 1 WP MM NOT_NAMED 1995-01-07 15:00:00 NR 7.18491 178.050 main 2532 2532 P_____________ WP011995 7.18491 178.050 27 -1 10 294
1995005N04189 1995 1 WP MM NOT_NAMED 1995-01-07 18:00:00 NR 7.40000 177.600 main 2570 2546 O_____________ jtwc_wp WP011995 7.40000 177.600 30 -1 10 295
1995005N04189 1995 1 WP MM NOT_NAMED 1995-01-07 21:00:00 NR 7.62747 177.107 main 2546 2516 P_____________ WP011995 7.62747 177.107 30 -1 13 294
1995005N04189 1995 1 WP MM NOT_NAMED 1995-01-08 00:00:00 NR 7.92000 176.400 main 2516 2502 O__O__________ jtwc_wp WP011995 7.90000 176.600 30 -1 8.00000 175.600 TD 25 1004 15 297
1995005N04189 1995 1 WP MM NOT_NAMED 1995-01-08 03:00:00 NR 8.27749 175.797 main 2503 2490 P__P__________ WP011995 8.23494 176.100 30 -1 8.36260 175.190 TD 27 1002 13 303
1995005N04189 1995 1 WP MM NOT_NAMED 1995-01-08 06:00:00 NR 8.64286 175.257 main 2492 2483 O__O__________ jtwc_wp WP011995 8.60000 175.600 30 -1 8.70000 174.800 TD 30 1000 12 305
1995005N04189 1995 1 WP MM NOT_NAMED 1995-01-08 09:00:00 NR 8.97866 174.779 main 2492 2485 P__P__________ WP011995 8.95737 175.115 27 -1 8.99994 174.442 TD 27 1002 11 307
1995005N04189 1995 1 WP MM NOT_NAMED 1995-01-08 12:00:00 NR 9.30000 174.386 main 2491 2484 O__O__________ jtwc_wp WP011995 9.30000 174.600 25 -1 9.30000 174.100 TD 25 1004 11 308
1995005N04189 1995 1 WP MM NOT_NAMED 1995-01-08 15:00:00 NR 9.63248 173.933 main 2485 2480 P__P__________ WP011995 9.62993 174.023 22 -1 9.63758 173.753 TD 25 1004 12 303
1995005N04189 1995 1 WP MM NOT_NAMED 1995-01-08 18:00:00 NR 9.92000 173.400 main 2480 2462 O__O__________ jtwc_wp WP011995 9.90000 173.400 20 -1 10.0000 173.400 TD 25 1004 13 291
1995005N04189 1995 1 WP MM NOT_NAMED 1995-01-08 21:00:00 NR 10.0875 172.750 main 2456 2431 P_____________ WP011995 10.0875 172.750 17 -1 TD 13 282
1995005N04189 1995 1 WP MM NOT_NAMED 1995-01-09 00:00:00 NR 10.2000 172.100 main 2431 2407 O_____________ jtwc_wp WP011995 10.2000 172.100 15 -1 13 278
1995005N04189 1995 1 WP MM NOT_NAMED 1995-01-09 03:00:00 NR 10.2627 171.488 main 2407 2375 P_____________ WP011995 10.2627 171.488 15 -1 12 275
1995005N04189 1995 1 WP MM NOT_NAMED 1995-01-09 06:00:00 NR 10.3000 170.900 main 2375 O_____________ jtwc_wp WP011995 10.3000 170.900 15 -1 12 274

About IBTrACS Database

This database is a web-friendly format of International Best Track Archive for Climate Stewardship (IBTrACS), a global best track data archive curated by NOAA dating back to 1842.

Updated: 2021-12-06